Cooper, Iowa
Current Conditions -  °F | °C
As of 7:15 AM on Thursday 30 Oct 2014 (Local Time) from KPRO Reporting Station
Clear Clear  
Wind Chill: 36°   Ceiling: Unl
Heat Index: 41°   Visibility: 10mi
Dew Point: 37°   Wind: 8mph
Humidity: 85%   Direction: 160°SSE
Pressure: 29.99"   Gusts: NA
Location:  41.92°N, 94.35°W
Report Text: KPRO 301215Z AUTO 16007KT 10SM CLR 05/03 A2999 RMK AO2 T00520028
Loading
Personal Weather Stations






























Interactive Weather Map
Tropical Storm Tracking
New forecast layout! Learn more

10-Day Weather Forecast

Advertisements
Track Severe Weather on mobile